Decoded Metar for KY51 (VIROQUA MUNI AIRPORT in WI, USA) (IATA:N/A) | Meteo·Mobile Aviation Weather
aviador You're here:

KY51 Decoded Metar

VIROQUA MUNI AIRPORT in WI, USA
Report Time2019-04-23 16:55:00
UTC Time2019-04-23 16:51:08
Flight Rules vfr VFR
Wind020° at 09 kt
Visibility9999 m
Phenomena:N/A
Clouds:N/A
Expected CloudBase > 2,800 ft AGL from Temp-Dew spread
CeilingNone
Temp12°C (ISA -0)
Dew Point05°C (63% RH)
AAT7.7°C
QNH1019 hPa
Density Alt1,161 ft
Elevation1,292 ft
Report Wrong Elevation
Raw Report
METAR KY51 231655Z AUTO 02009KT 10SM CLR 12/05 A3010 RMK AO1
T01210051=

Extra information for KY51:More info

Metar Taf Metar & Taf Last 4 Metars F.Rules Stats Wind Profile Meteogram Temp Stats Airport Information Weather charts Add Link Nearby VenuesMetar ALERT Operation Metar Decoded Social comments

AIRNAV info for KY51